Time;durP1;ratioP1;P1;durP2;ratioP2;P2;SDS_P1;SDS_P2;PMS_P1;PMS_P2;Temp;Humidity;BMP_temperature;BMP_pressure;BME280_temperature;BME280_humidity;BME280_pressure;Samples;Min_cycle;Max_cycle;Signal;HPM_P1;HPM_P2
2022/04/17 00:01:02;;;;;;;7.10;4.82;;;10.10;96.40;;;;;;5039768;28;20036;-70
2022/04/17 00:03:28;;;;;;;7.43;4.70;;;10.10;96.40;;;;;;5036877;28;20057;-70
2022/04/17 00:05:53;;;;;;;7.47;4.68;;;10.10;96.50;;;;;;5040189;27;20166;-69
2022/04/17 00:08:19;;;;;;;7.43;4.82;;;10.10;96.10;;;;;;5037964;28;20395;-70
2022/04/17 00:10:48;;;;;;;6.40;5.28;;;10.10;96.40;;;;;;5040551;28;20036;-69
2022/04/17 00:13:14;;;;;;;8.80;5.00;;;10.00;96.20;;;;;;5040947;28;20110;-69
2022/04/17 00:15:40;;;;;;;8.38;4.90;;;10.00;96.30;;;;;;5036523;27;20029;-70
2022/04/17 00:18:06;;;;;;;9.93;5.43;;;9.90;96.50;;;;;;5039700;28;20037;-70
2022/04/17 00:20:32;;;;;;;10.38;5.22;;;9.90;96.90;;;;;;5047831;27;20786;-70
2022/04/17 00:22:58;;;;;;;6.20;4.45;;;9.90;96.60;;;;;;5036477;28;20427;-69
2022/04/17 00:25:24;;;;;;;6.05;4.40;;;9.80;96.60;;;;;;5041256;28;20144;-69
2022/04/17 00:27:49;;;;;;;4.95;4.00;;;9.80;96.40;;;;;;5043910;28;20055;-69
2022/04/17 00:30:15;;;;;;;6.15;4.43;;;9.80;96.60;;;;;;5042615;28;20077;-69
2022/04/17 00:32:41;;;;;;;7.60;4.78;;;9.80;96.90;;;;;;5032913;27;20017;-69
2022/04/17 00:35:08;;;;;;;7.40;4.68;;;9.70;96.70;;;;;;5038850;28;20106;-69
2022/04/17 00:37:34;;;;;;;6.38;4.65;;;9.80;96.90;;;;;;5037432;28;20024;-69
2022/04/17 00:39:59;;;;;;;4.80;4.30;;;9.80;96.70;;;;;;5036838;28;20029;-69
2022/04/17 00:42:25;;;;;;;8.02;4.53;;;9.70;97.10;;;;;;5034232;28;20034;-70
2022/04/17 00:44:51;;;;;;;7.30;4.53;;;9.60;97.00;;;;;;5037097;28;20073;-70
2022/04/17 00:47:16;;;;;;;7.18;4.60;;;9.60;97.10;;;;;;5037569;28;20108;-69
2022/04/17 00:49:46;;;;;;;7.65;4.72;;;9.70;96.70;;;;;;5040485;28;20013;-69
2022/04/17 00:52:13;;;;;;;6.68;4.35;;;9.70;96.30;;;;;;5044053;28;20426;-70
2022/04/17 00:54:49;;;;;;;5.20;3.55;;;9.70;96.40;;;;;;5036800;27;20021;-69
2022/04/17 00:57:16;;;;;;;6.65;4.20;;;9.60;96.50;;;;;;5043524;28;20065;-69
2022/04/17 00:59:43;;;;;;;8.52;4.40;;;9.60;96.90;;;;;;5035797;27;20017;-69
2022/04/17 01:02:10;;;;;;;6.53;4.15;;;9.50;96.20;;;;;;5037713;28;20469;-70
2022/04/17 01:04:36;;;;;;;5.18;3.83;;;9.50;95.90;;;;;;5034596;28;20070;-69
2022/04/17 01:07:03;;;;;;;6.43;4.13;;;9.40;95.80;;;;;;5035333;28;20155;-69
2022/04/17 01:09:29;;;;;;;6.57;3.95;;;9.40;96.10;;;;;;5041633;28;20036;-69
2022/04/17 01:11:56;;;;;;;6.05;4.10;;;9.50;96.70;;;;;;5045087;28;20029;-69
2022/04/17 01:14:21;;;;;;;4.82;4.10;;;9.50;96.30;;;;;;5040687;27;20477;-70
2022/04/17 01:16:47;;;;;;;10.68;4.32;;;9.40;96.00;;;;;;5042440;28;20032;-69
2022/04/17 01:19:13;;;;;;;4.95;3.67;;;9.40;96.30;;;;;;5038203;28;20047;-69
2022/04/17 01:21:40;;;;;;;8.18;4.03;;;9.30;96.00;;;;;;5041444;28;20030;-69
2022/04/17 01:26:56;;;;;;;4.72;3.55;;;9.30;95.90;;;;;;5043366;28;20045;-69
2022/04/17 01:29:23;;;;;;;5.05;3.75;;;9.30;95.70;;;;;;5039517;27;20381;-69
2022/04/17 01:31:49;;;;;;;5.63;3.20;;;9.20;95.70;;;;;;5042681;28;20029;-69
2022/04/17 01:34:16;;;;;;;5.20;3.28;;;9.10;95.50;;;;;;5047233;28;20377;-69
2022/04/17 01:36:45;;;;;;;7.75;3.63;;;9.10;95.70;;;;;;5043625;28;20081;-69
2022/04/17 01:39:12;;;;;;;9.45;3.25;;;9.10;95.60;;;;;;5048991;28;20040;-69
2022/04/17 01:41:38;;;;;;;4.63;3.50;;;9.10;95.70;;;;;;5042785;28;20036;-69
2022/04/17 01:44:04;;;;;;;5.97;4.05;;;9.00;95.80;;;;;;5045339;28;20027;-69
2022/04/17 01:46:30;;;;;;;7.70;3.70;;;9.00;95.90;;;;;;5041400;27;20029;-69
2022/04/17 01:48:56;;;;;;;4.82;3.00;;;8.90;95.90;;;;;;5042473;28;20032;-69
2022/04/17 01:51:24;;;;;;;4.10;3.20;;;8.90;96.10;;;;;;5038571;27;20094;-69
2022/04/17 01:53:50;;;;;;;5.28;3.22;;;8.90;96.30;;;;;;5040653;28;20028;-69
2022/04/17 01:56:16;;;;;;;6.03;3.47;;;8.80;96.50;;;;;;5044659;28;20123;-69
2022/04/17 01:58:41;;;;;;;4.35;3.60;;;8.80;96.50;;;;;;5037350;28;20017;-69
2022/04/17 02:01:07;;;;;;;9.27;3.90;;;8.70;96.10;;;;;;5038695;28;20036;-69
2022/04/17 02:03:33;;;;;;;4.50;3.08;;;8.80;96.70;;;;;;5042350;28;20034;-69
2022/04/17 02:06:02;;;;;;;6.28;3.47;;;8.70;97.30;;;;;;5038967;28;20119;-69
2022/04/17 02:08:28;;;;;;;5.65;3.30;;;8.60;96.10;;;;;;5037884;28;20093;-69
2022/04/17 02:10:55;;;;;;;4.15;3.20;;;8.50;97.50;;;;;;5042702;27;20396;-69
2022/04/17 02:13:20;;;;;;;5.70;3.40;;;8.50;97.20;;;;;;5087713;27;20489;-69
2022/04/17 02:15:46;;;;;;;3.60;3.22;;;8.50;97.60;;;;;;5036899;27;20028;-69
2022/04/17 02:18:13;;;;;;;4.85;3.17;;;8.50;97.90;;;;;;5041048;28;20473;-69
2022/04/17 02:20:39;;;;;;;3.50;3.20;;;8.50;97.80;;;;;;5039389;28;20032;-69
2022/04/17 02:23:04;;;;;;;5.45;3.03;;;8.40;97.40;;;;;;5038778;28;20045;-69
2022/04/17 02:25:30;;;;;;;5.00;2.88;;;8.40;97.60;;;;;;5041919;28;20038;-69
2022/04/17 02:27:56;;;;;;;6.15;3.25;;;8.40;97.10;;;;;;5045859;28;20040;-69
2022/04/17 02:30:21;;;;;;;4.28;3.47;;;8.40;97.20;;;;;;5040666;28;20112;-69
2022/04/17 02:32:47;;;;;;;5.40;3.53;;;8.40;97.10;;;;;;5048398;28;20070;-69
2022/04/17 02:35:12;;;;;;;4.80;3.50;;;8.40;97.00;;;;;;5040443;27;20112;-69
2022/04/17 02:37:38;;;;;;;6.63;3.30;;;8.50;97.30;;;;;;5041563;28;20025;-69
2022/04/17 02:40:04;;;;;;;4.13;3.30;;;8.50;96.90;;;;;;5042039;27;20503;-69
2022/04/17 02:42:30;;;;;;;6.13;3.33;;;8.50;97.10;;;;;;5039578;28;20393;-69
2022/04/17 02:44:55;;;;;;;7.00;3.15;;;8.50;96.90;;;;;;5048168;28;20024;-69
2022/04/17 02:50:06;;;;;;;5.10;3.28;;;8.50;96.80;;;;;;5041777;28;20085;-69
2022/04/17 02:52:34;;;;;;;4.10;2.97;;;8.50;96.70;;;;;;5040439;28;20021;-69
2022/04/17 02:55:00;;;;;;;3.70;2.88;;;8.40;96.60;;;;;;5043277;28;20024;-69
2022/04/17 02:57:26;;;;;;;4.43;2.75;;;8.40;96.20;;;;;;5038658;28;20488;-69
2022/04/17 02:59:52;;;;;;;4.68;3.30;;;8.30;96.10;;;;;;5044618;28;20040;-69
2022/04/17 03:07:46;;;;;;;7.07;3.85;;;8.30;96.70;;;;;;5038200;28;20090;-69
2022/04/17 03:10:11;;;;;;;4.97;3.47;;;8.30;96.90;;;;;;5043042;28;20439;-69
2022/04/17 03:12:38;;;;;;;6.20;3.40;;;8.40;96.90;;;;;;5037454;28;20040;-69
2022/04/17 03:15:07;;;;;;;8.80;3.92;;;8.40;96.70;;;;;;5041582;28;20053;-69
2022/04/17 03:17:33;;;;;;;5.55;3.63;;;8.40;97.20;;;;;;5042012;28;20029;-69
2022/04/17 03:19:59;;;;;;;4.35;3.22;;;8.30;97.60;;;;;;5046199;28;20147;-69
2022/04/17 03:22:25;;;;;;;6.50;3.42;;;8.20;97.70;;;;;;5033909;28;20041;-69
2022/04/17 03:24:51;;;;;;;5.32;3.38;;;8.20;98.30;;;;;;5039073;28;20025;-69
2022/04/17 03:27:17;;;;;;;5.30;3.45;;;8.20;98.10;;;;;;5035083;27;20033;-69
2022/04/17 03:29:42;;;;;;;4.22;3.30;;;8.20;98.00;;;;;;5038996;28;20026;-69
2022/04/17 03:32:08;;;;;;;6.32;3.22;;;8.20;97.70;;;;;;5040370;28;20036;-69
2022/04/17 03:34:34;;;;;;;6.07;3.45;;;8.20;97.40;;;;;;5037697;28;20078;-69
2022/04/17 03:37:00;;;;;;;4.88;3.17;;;8.10;97.20;;;;;;5038580;28;20441;-69
2022/04/17 03:39:26;;;;;;;6.57;3.22;;;8.10;97.40;;;;;;5042236;28;20040;-69
2022/04/17 03:41:53;;;;;;;4.40;3.40;;;8.10;97.50;;;;;;5038091;28;20152;-69
2022/04/17 03:44:19;;;;;;;3.42;3.10;;;8.00;97.40;;;;;;5044799;28;20039;-69
2022/04/17 03:46:45;;;;;;;3.83;3.25;;;8.00;97.50;;;;;;5045230;27;20036;-69
2022/04/17 03:49:11;;;;;;;5.53;3.58;;;8.00;97.70;;;;;;5037631;28;20060;-69
2022/04/17 03:51:37;;;;;;;7.22;4.05;;;7.90;98.00;;;;;;5035169;27;20029;-69
2022/04/17 03:54:02;;;;;;;5.90;3.40;;;7.90;97.60;;;;;;5037164;28;20029;-69
2022/04/17 03:56:28;;;;;;;4.38;3.33;;;7.90;97.40;;;;;;5040243;28;20089;-69
2022/04/17 03:58:54;;;;;;;5.97;3.47;;;7.80;97.20;;;;;;5035790;27;20041;-69
2022/04/17 04:01:20;;;;;;;4.65;3.60;;;7.80;97.30;;;;;;5039061;28;20030;-69
2022/04/17 04:03:47;;;;;;;4.40;3.80;;;7.80;97.30;;;;;;5037854;28;20037;-69
2022/04/17 04:06:12;;;;;;;8.18;4.13;;;7.70;97.00;;;;;;5041204;28;20076;-69
2022/04/17 04:08:38;;;;;;;6.05;3.70;;;7.60;97.20;;;;;;5037052;28;20034;-69
2022/04/17 04:11:03;;;;;;;5.03;4.18;;;7.60;97.20;;;;;;5035456;27;20365;-69
2022/04/17 04:13:29;;;;;;;5.47;3.83;;;7.60;97.50;;;;;;5037069;28;20177;-69
2022/04/17 04:15:55;;;;;;;4.10;3.65;;;7.60;97.40;;;;;;5047005;28;20027;-69
2022/04/17 04:18:21;;;;;;;4.82;4.03;;;7.50;97.90;;;;;;5040214;27;20389;-69
2022/04/17 04:20:47;;;;;;;3.95;3.50;;;7.50;99.00;;;;;;5040330;28;20108;-68
2022/04/17 04:23:13;;;;;;;4.47;3.33;;;7.40;98.20;;;;;;5029257;28;20124;-69
2022/04/17 04:25:39;;;;;;;4.15;3.72;;;7.30;98.50;;;;;;5037592;27;20357;-69
2022/04/17 04:30:49;;;;;;;4.75;3.63;;;7.30;99.10;;;;;;5036554;28;20124;-69
2022/04/17 04:33:14;;;;;;;6.43;3.17;;;7.20;99.80;;;;;;5047153;28;20139;-69
2022/04/17 04:35:40;;;;;;;6.13;3.90;;;7.20;99.50;;;;;;5043332;28;20476;-69
2022/04/17 04:38:06;;;;;;;5.35;3.90;;;7.20;99.70;;;;;;5046134;28;20040;-69
2022/04/17 04:40:32;;;;;;;5.60;4.18;;;7.20;99.20;;;;;;5038835;28;20017;-69
2022/04/17 04:43:02;;;;;;;6.80;4.18;;;7.20;99.90;;;;;;5043869;27;20036;-69
2022/04/17 04:48:12;;;;;;;5.13;4.43;;;7.20;99.70;;;;;;5041119;27;20113;-69
2022/04/17 04:50:38;;;;;;;7.18;4.78;;;7.20;99.60;;;;;;5042951;28;20096;-69
2022/04/17 04:53:04;;;;;;;4.30;3.80;;;7.20;99.10;;;;;;5042931;27;20033;-69
2022/04/17 04:55:29;;;;;;;8.98;4.70;;;7.20;98.80;;;;;;5040299;28;20053;-69
2022/04/17 04:57:55;;;;;;;5.93;4.50;;;7.20;99.10;;;;;;5040316;27;20132;-69
2022/04/17 05:00:21;;;;;;;6.60;4.60;;;7.10;99.60;;;;;;5042410;28;20060;-68
2022/04/17 05:02:47;;;;;;;8.57;4.00;;;7.00;99.50;;;;;;5038098;27;20076;-69
2022/04/17 05:05:13;;;;;;;6.43;4.68;;;7.10;99.70;;;;;;5042045;28;20057;-68
2022/04/17 05:07:39;;;;;;;5.38;4.13;;;7.00;99.30;;;;;;5035406;28;20061;-68
2022/04/17 05:10:06;;;;;;;6.55;4.32;;;7.00;99.50;;;;;;5036631;28;20381;-68
2022/04/17 05:12:31;;;;;;;7.20;4.75;;;7.00;99.20;;;;;;5042703;28;20025;-68
2022/04/17 05:14:57;;;;;;;8.93;4.97;;;6.90;99.20;;;;;;5037052;28;20037;-68
2022/04/17 05:17:23;;;;;;;8.25;4.68;;;6.90;99.10;;;;;;5039117;28;20093;-69
2022/04/17 05:19:50;;;;;;;6.30;4.55;;;7.00;99.20;;;;;;5043955;27;20025;-68
2022/04/17 05:22:16;;;;;;;4.78;4.15;;;6.90;99.10;;;;;;5041260;28;20048;-68
2022/04/17 05:24:46;;;;;;;5.95;3.92;;;6.90;98.80;;;;;;5039420;28;20538;-68
2022/04/17 05:27:12;;;;;;;5.32;4.50;;;6.90;99.30;;;;;;5042050;28;20032;-68
2022/04/17 05:29:39;;;;;;;4.82;3.85;;;6.90;99.40;;;;;;5042449;27;20033;-68
2022/04/17 05:32:05;;;;;;;6.90;5.35;;;6.80;99.90;;;;;;5041453;28;20485;-68
2022/04/17 05:34:31;;;;;;;7.57;5.00;;;6.80;99.90;;;;;;5036499;28;20013;-68
2022/04/17 05:36:56;;;;;;;6.22;5.05;;;6.90;99.90;;;;;;5042311;28;20408;-68
2022/04/17 05:39:22;;;;;;;5.57;4.57;;;6.90;99.90;;;;;;5040122;27;20070;-68
2022/04/17 05:41:49;;;;;;;6.68;4.50;;;6.80;99.90;;;;;;5038925;28;20041;-68
2022/04/17 05:44:16;;;;;;;6.90;4.65;;;6.90;99.90;;;;;;5037684;27;20045;-68
2022/04/17 05:46:42;;;;;;;9.93;4.45;;;6.90;99.90;;;;;;5043175;28;20029;-68
2022/04/17 05:49:08;;;;;;;11.32;5.70;;;6.80;99.90;;;;;;5042992;27;20022;-68
2022/04/17 05:51:35;;;;;;;6.65;4.80;;;6.80;99.90;;;;;;5044299;28;20098;-68
2022/04/17 05:54:05;;;;;;;6.25;4.00;;;6.90;99.90;;;;;;5042250;28;20025;-68
2022/04/17 05:56:31;;;;;;;8.02;4.50;;;6.90;99.90;;;;;;5043163;28;20028;-68
2022/04/17 05:58:57;;;;;;;5.65;4.28;;;6.90;99.90;;;;;;5039214;27;20377;-68
2022/04/17 06:01:24;;;;;;;8.57;3.97;;;7.00;99.90;;;;;;5043752;28;20045;-68
2022/04/17 06:03:50;;;;;;;6.63;3.97;;;7.10;99.90;;;;;;5043139;27;20029;-68
2022/04/17 06:06:18;;;;;;;6.03;3.90;;;7.10;99.90;;;;;;5041339;28;20532;-68
2022/04/17 06:08:44;;;;;;;4.55;4.10;;;7.30;99.90;;;;;;5043977;28;20060;-68
2022/04/17 06:11:10;;;;;;;4.70;4.20;;;7.20;99.90;;;;;;5041962;28;20052;-68
2022/04/17 06:13:35;;;;;;;10.20;5.10;;;7.30;99.90;;;;;;5043425;28;20436;-68
2022/04/17 06:16:01;;;;;;;6.65;4.18;;;7.30;99.90;;;;;;5047136;28;20024;-68
2022/04/17 06:18:26;;;;;;;6.22;4.50;;;7.40;99.90;;;;;;5037199;28;20040;-68
2022/04/17 06:20:52;;;;;;;6.30;5.10;;;7.50;99.90;;;;;;5045177;28;20038;-68
2022/04/17 06:23:18;;;;;;;6.05;4.75;;;7.50;99.70;;;;;;5044348;28;20021;-68
2022/04/17 06:25:43;;;;;;;5.22;4.38;;;7.60;99.70;;;;;;5046492;27;20029;-68
2022/04/17 06:28:09;;;;;;;6.72;4.38;;;7.70;99.90;;;;;;5042835;28;20449;-68
2022/04/17 06:30:34;;;;;;;5.05;4.22;;;7.80;99.50;;;;;;5047923;28;20065;-68
2022/04/17 06:33:00;;;;;;;4.72;3.70;;;7.80;99.70;;;;;;5044645;27;20017;-69
2022/04/17 06:35:26;;;;;;;4.30;3.70;;;7.90;99.10;;;;;;5047594;28;20080;-68
2022/04/17 06:37:59;;;;;;;6.95;4.03;;;7.90;99.30;;;;;;5036738;27;20013;-68
2022/04/17 06:40:25;;;;;;;6.85;4.72;;;8.00;99.30;;;;;;5045330;28;20136;-68
2022/04/17 06:42:54;;;;;;;5.50;4.18;;;8.20;98.70;;;;;;5038131;27;20044;-68
2022/04/17 06:45:21;;;;;;;6.55;4.88;;;8.30;99.10;;;;;;5042148;28;20033;-68
2022/04/17 06:47:47;;;;;;;6.55;4.95;;;8.40;99.00;;;;;;5040497;28;20034;-68
2022/04/17 06:50:14;;;;;;;5.45;4.43;;;8.50;99.10;;;;;;5046037;28;20377;-68
2022/04/17 06:52:40;;;;;;;7.93;4.55;;;8.60;98.20;;;;;;5039428;27;20017;-68
2022/04/17 06:55:08;;;;;;;4.78;3.95;;;8.60;98.10;;;;;;5040961;28;20032;-68
2022/04/17 06:57:36;;;;;;;4.38;3.97;;;8.70;97.90;;;;;;5037957;27;20025;-68
2022/04/17 07:00:12;;;;;;;4.63;3.40;;;8.80;97.80;;;;;;5042028;28;20031;-68
2022/04/17 07:02:38;;;;;;;4.95;4.20;;;9.00;97.70;;;;;;5044082;28;20453;-68
2022/04/17 07:05:05;;;;;;;4.00;3.58;;;9.00;98.00;;;;;;5036046;28;20021;-68
2022/04/17 07:07:31;;;;;;;6.32;4.28;;;9.20;98.00;;;;;;5045195;28;20037;-69
2022/04/17 07:09:57;;;;;;;5.60;4.38;;;9.30;97.30;;;;;;5042995;28;20605;-69
2022/04/17 07:12:23;;;;;;;4.00;3.33;;;9.30;97.30;;;;;;5036828;27;20481;-68
2022/04/17 07:14:49;;;;;;;4.53;3.25;;;9.40;97.00;;;;;;5040221;28;20033;-68
2022/04/17 07:17:15;;;;;;;4.70;3.58;;;9.50;97.10;;;;;;5043205;28;20055;-69
2022/04/17 07:19:40;;;;;;;5.68;3.97;;;9.60;97.00;;;;;;5048377;28;20532;-69
2022/04/17 07:22:06;;;;;;;4.63;3.85;;;9.70;96.80;;;;;;5041438;27;20049;-69
2022/04/17 07:24:32;;;;;;;5.90;3.60;;;9.90;97.20;;;;;;5035999;28;20017;-69
2022/04/17 07:27:00;;;;;;;4.68;3.60;;;10.00;97.20;;;;;;5040406;28;20033;-69
2022/04/17 07:29:26;;;;;;;5.15;3.83;;;10.10;96.40;;;;;;5038326;27;20485;-69
2022/04/17 07:31:55;;;;;;;5.97;4.10;;;10.20;96.00;;;;;;5046912;28;20370;-69
2022/04/17 07:34:21;;;;;;;5.55;3.45;;;10.30;96.40;;;;;;5036508;27;20037;-69
2022/04/17 07:36:47;;;;;;;3.83;3.53;;;10.40;96.30;;;;;;5038195;28;20090;-69
2022/04/17 07:39:17;;;;;;;4.07;3.55;;;10.50;96.10;;;;;;5037667;28;20022;-69
2022/04/17 07:41:44;;;;;;;6.40;3.42;;;10.60;96.20;;;;;;5038218;27;20077;-69
2022/04/17 07:44:13;;;;;;;3.20;3.00;;;10.80;95.90;;;;;;5039937;28;20397;-69
2022/04/17 07:46:39;;;;;;;5.63;3.70;;;10.90;95.80;;;;;;5041450;28;20412;-69
2022/04/17 07:49:05;;;;;;;4.45;3.40;;;11.10;95.30;;;;;;5037502;27;20389;-69
2022/04/17 07:51:31;;;;;;;4.30;2.90;;;11.30;95.50;;;;;;5041433;28;20734;-69
2022/04/17 07:53:56;;;;;;;5.57;2.97;;;11.40;95.00;;;;;;5046639;28;20040;-70
2022/04/17 07:56:22;;;;;;;3.15;2.85;;;11.50;94.70;;;;;;5042266;28;20370;-69
2022/04/17 07:58:48;;;;;;;3.55;3.25;;;11.70;94.80;;;;;;5039017;28;20029;-69
2022/04/17 08:01:15;;;;;;;5.70;3.42;;;11.80;94.00;;;;;;5041279;27;20093;-69
2022/04/17 08:06:09;;;;;;;4.07;2.80;;;12.30;94.00;;;;;;5036421;28;20478;-69
2022/04/17 08:08:41;;;;;;;2.90;2.60;;;12.40;92.70;;;;;;5041633;28;20029;-70
2022/04/17 08:11:08;;;;;;;4.60;3.38;;;12.60;92.60;;;;;;5038242;27;20641;-69
2022/04/17 08:13:35;;;;;;;6.55;3.28;;;12.70;93.50;;;;;;5039909;28;20077;-69
2022/04/17 08:16:02;;;;;;;7.32;3.17;;;12.70;92.90;;;;;;5041155;27;20027;-69
2022/04/17 08:18:28;;;;;;;4.72;3.25;;;12.90;93.00;;;;;;5036505;28;20121;-70
2022/04/17 08:20:54;;;;;;;4.57;3.30;;;13.00;92.90;;;;;;5039514;28;20108;-69
2022/04/17 08:23:20;;;;;;;4.20;3.65;;;13.20;92.10;;;;;;5034791;28;20034;-70
2022/04/17 08:25:46;;;;;;;4.68;3.15;;;13.20;92.20;;;;;;5033682;27;20492;-69
2022/04/17 08:28:12;;;;;;;3.72;2.40;;;13.30;91.70;;;;;;5039793;28;20108;-69
2022/04/17 08:30:38;;;;;;;3.28;2.90;;;13.40;92.40;;;;;;5036325;27;20109;-69
2022/04/17 08:33:06;;;;;;;5.00;2.80;;;13.50;91.80;;;;;;5042104;28;20430;-69
2022/04/17 08:35:32;;;;;;;4.45;3.03;;;13.70;90.80;;;;;;5037175;28;20025;-69
2022/04/17 08:38:00;;;;;;;3.28;2.67;;;13.70;90.40;;;;;;5037028;28;20469;-70
2022/04/17 08:40:27;;;;;;;4.15;2.80;;;13.90;90.60;;;;;;5045070;28;20036;-70
2022/04/17 08:42:53;;;;;;;5.00;3.20;;;14.00;90.70;;;;;;5042049;27;20567;-69
2022/04/17 08:45:19;;;;;;;4.95;2.65;;;13.80;90.20;;;;;;5042235;28;20029;-69
2022/04/17 08:47:45;;;;;;;3.33;2.50;;;14.00;90.60;;;;;;5044920;28;20032;-70
2022/04/17 08:50:14;;;;;;;4.30;3.25;;;14.20;88.90;;;;;;5043655;27;20036;-69
2022/04/17 08:52:41;;;;;;;3.28;2.80;;;14.40;91.20;;;;;;5036201;28;20085;-69
2022/04/17 08:55:08;;;;;;;4.90;3.28;;;14.60;90.60;;;;;;5040530;28;20084;-70
2022/04/17 08:57:34;;;;;;;4.07;3.22;;;14.40;87.70;;;;;;5045125;28;20025;-69
2022/04/17 08:59:59;;;;;;;2.85;2.63;;;14.50;88.70;;;;;;5035412;28;20046;-70
2022/04/17 09:02:25;;;;;;;3.00;2.80;;;14.60;87.70;;;;;;5046205;28;20390;-69
2022/04/17 09:04:51;;;;;;;2.80;2.55;;;14.80;86.40;;;;;;5040779;27;20029;-69
2022/04/17 09:07:16;;;;;;;3.22;2.88;;;14.70;85.40;;;;;;5035534;28;20163;-71
2022/04/17 09:09:50;;;;;;;3.33;3.03;;;14.80;90.00;;;;;;5042696;28;20048;-70
2022/04/17 09:12:23;;;;;;;4.28;3.13;;;15.00;87.90;;;;;;5035806;28;20040;-70
2022/04/17 09:14:49;;;;;;;5.15;2.80;;;15.00;86.20;;;;;;5033626;27;20017;-70
2022/04/17 09:17:16;;;;;;;4.28;3.00;;;14.90;85.80;;;;;;5038098;28;20393;-70
2022/04/17 09:19:42;;;;;;;3.42;2.50;;;14.90;85.00;;;;;;5033108;27;20154;-69
2022/04/17 09:22:12;;;;;;;4.63;2.67;;;15.00;85.50;;;;;;5039332;28;20029;-71
2022/04/17 09:24:39;;;;;;;5.03;2.70;;;15.10;84.40;;;;;;5034332;27;20473;-70
2022/04/17 09:27:06;;;;;;;4.95;2.60;;;15.40;84.10;;;;;;5038616;28;20029;-70
2022/04/17 09:29:37;;;;;;;5.57;2.60;;;15.50;84.90;;;;;;5036741;27;20024;-70
2022/04/17 09:32:04;;;;;;;3.03;2.72;;;15.60;83.40;;;;;;5042739;28;20108;-71
2022/04/17 09:34:42;;;;;;;3.50;2.80;;;15.70;84.40;;;;;;5046500;28;20101;-70
2022/04/17 09:37:17;;;;;;;4.28;3.03;;;16.20;85.60;;;;;;5042633;28;20021;-70
2022/04/17 09:39:43;;;;;;;3.53;2.85;;;16.20;83.90;;;;;;5040435;27;20028;-70
2022/04/17 09:42:09;;;;;;;5.30;3.20;;;16.40;84.80;;;;;;5045830;28;20044;-71
2022/04/17 09:44:36;;;;;;;3.25;2.75;;;16.40;85.00;;;;;;5042491;27;20094;-71
2022/04/17 09:47:03;;;;;;;6.10;3.17;;;16.50;83.60;;;;;;5042565;28;20025;-71
2022/04/17 09:49:29;;;;;;;3.95;3.47;;;16.60;83.30;;;;;;5045279;27;20025;-71
2022/04/17 09:52:09;;;;;;;3.25;2.95;;;16.80;84.90;;;;;;5044658;28;20033;-72
2022/04/17 09:54:35;;;;;;;3.17;2.70;;;17.10;87.00;;;;;;5047070;28;20021;-71
2022/04/17 09:57:01;;;;;;;4.90;2.55;;;17.20;79.60;;;;;;5045961;28;20481;-71
2022/04/17 09:59:27;;;;;;;4.38;2.70;;;17.30;82.10;;;;;;5044264;28;20036;-71
2022/04/17 10:01:57;;;;;;;3.65;2.72;;;17.30;79.90;;;;;;5047527;28;20029;-72
2022/04/17 10:04:25;;;;;;;5.85;3.03;;;17.40;79.20;;;;;;5043979;27;20480;-70
2022/04/17 10:06:52;;;;;;;5.90;2.85;;;17.40;79.30;;;;;;5042123;28;20388;-71
2022/04/17 10:09:19;;;;;;;7.45;3.10;;;17.70;82.70;;;;;;5043828;28;20052;-71
2022/04/17 10:11:45;;;;;;;5.85;2.80;;;17.70;78.60;;;;;;5039750;28;20029;-71
2022/04/17 10:14:11;;;;;;;5.85;2.70;;;17.80;78.50;;;;;;5041617;28;20026;-70
2022/04/17 10:16:41;;;;;;;5.10;3.05;;;17.90;79.80;;;;;;5037629;27;20029;-70
2022/04/17 10:19:13;;;;;;;4.03;2.53;;;17.90;76.90;;;;;;5039902;28;20040;-70
2022/04/17 10:21:42;;;;;;;4.72;2.40;;;18.00;78.40;;;;;;5042698;28;20030;-71
2022/04/17 10:24:18;;;;;;;3.70;2.60;;;17.90;78.40;;;;;;5036784;28;20067;-71
2022/04/17 10:26:45;;;;;;;3.80;2.30;;;18.30;76.40;;;;;;5036650;28;20066;-71
2022/04/17 10:29:43;;;;;;;2.38;2.17;;;18.30;75.60;;;;;;5035535;27;20112;-71
2022/04/17 10:32:35;;;;;;;3.63;2.25;;;18.40;75.30;;;;;;5041893;28;20029;-71
2022/04/17 10:35:26;;;;;;;6.13;2.40;;;18.30;74.40;;;;;;5036774;27;20035;-71
2022/04/17 10:38:13;;;;;;;2.65;2.33;;;18.60;80.10;;;;;;5040094;28;20112;-71
2022/04/17 10:40:40;;;;;;;5.07;2.65;;;19.00;82.50;;;;;;5037335;27;20040;-71
2022/04/17 10:43:06;;;;;;;2.70;2.13;;;19.00;74.20;;;;;;5041777;28;20037;-70
2022/04/17 10:45:31;;;;;;;5.20;2.35;;;18.90;73.70;;;;;;5039774;28;20025;-70
2022/04/17 10:48:07;;;;;;;2.65;1.85;;;19.20;77.50;;;;;;5040047;28;20033;-71
2022/04/17 10:50:48;;;;;;;3.38;2.45;;;19.20;73.70;;;;;;5035934;27;20060;-71
2022/04/17 10:53:30;;;;;;;3.45;2.10;;;19.30;72.30;;;;;;5036503;28;20027;-71
2022/04/17 10:56:06;;;;;;;3.25;2.53;;;19.30;70.90;;;;;;5041373;28;20055;-71
2022/04/17 10:58:40;;;;;;;3.25;2.10;;;19.50;75.20;;;;;;5040600;28;20021;-72
2022/04/17 11:01:06;;;;;;;4.22;2.38;;;19.30;72.80;;;;;;5043412;28;20028;-72
2022/04/17 11:03:34;;;;;;;5.00;2.35;;;19.30;70.50;;;;;;5041032;28;20120;-71
2022/04/17 11:06:32;;;;;;;17.48;4.35;;;19.40;76.80;;;;;;5039376;27;20040;-71
2022/04/17 11:09:09;;;;;;;7.30;2.33;;;19.60;72.70;;;;;;5036834;28;20033;-72
2022/04/17 11:11:36;;;;;;;3.10;2.00;;;19.50;70.60;;;;;;5042320;27;20040;-71
2022/04/17 11:14:13;;;;;;;2.78;2.00;;;19.50;70.50;;;;;;5038288;28;20033;-71
2022/04/17 11:16:48;;;;;;;5.05;2.42;;;19.60;70.80;;;;;;5041484;28;20108;-72
2022/04/17 11:19:17;;;;;;;5.65;1.88;;;19.70;73.50;;;;;;5042941;28;20021;-71
2022/04/17 11:21:46;;;;;;;2.47;2.05;;;20.00;74.70;;;;;;5035819;28;20396;-71
2022/04/17 11:24:12;;;;;;;4.53;2.20;;;20.20;74.30;;;;;;5042554;28;20409;-71
2022/04/17 11:26:53;;;;;;;2.13;1.92;;;20.10;66.80;;;;;;5034756;27;20117;-71
2022/04/17 11:29:43;;;;;;;5.10;1.55;;;20.20;69.40;;;;;;5041073;28;20029;-71
2022/04/17 11:32:18;;;;;;;2.25;1.90;;;20.10;69.60;;;;;;5042152;28;20021;-71
2022/04/17 11:34:55;;;;;;;2.80;1.65;;;20.00;69.30;;;;;;5042088;28;20469;-71
2022/04/17 11:37:31;;;;;;;6.90;1.67;;;20.00;67.30;;;;;;5038135;27;20021;-72
2022/04/17 11:40:07;;;;;;;1.70;1.60;;;19.90;65.80;;;;;;5038883;28;20033;-72
2022/04/17 11:42:43;;;;;;;2.70;1.73;;;20.10;67.10;;;;;;5038196;27;20045;-71
2022/04/17 11:45:10;;;;;;;2.28;1.48;;;20.00;67.00;;;;;;5038113;28;20026;-71
2022/04/17 11:47:41;;;;;;;2.45;1.10;;;20.00;69.60;;;;;;5038568;27;20022;-72
2022/04/17 11:50:12;;;;;;;2.00;1.48;;;20.00;61.60;;;;;;5040017;28;20259;-72
2022/04/17 11:52:38;;;;;;;1.70;1.25;;;20.20;66.70;;;;;;5044151;28;20073;-70
2022/04/17 11:55:05;;;;;;;1.67;1.42;;;20.20;70.10;;;;;;5039443;28;20029;-71
2022/04/17 11:57:32;;;;;;;2.17;1.45;;;20.50;69.90;;;;;;5038955;28;20033;-71
2022/04/17 11:59:58;;;;;;;3.63;1.30;;;20.40;62.00;;;;;;5034962;28;20595;-72
2022/04/17 12:02:25;;;;;;;3.00;1.23;;;20.20;65.10;;;;;;5037104;28;20042;-71
2022/04/17 12:05:05;;;;;;;1.48;1.38;;;20.60;62.40;;;;;;5035808;27;20117;-71
2022/04/17 12:07:31;;;;;;;1.58;1.10;;;20.60;64.90;;;;;;5035379;28;20044;-71
2022/04/17 12:10:06;;;;;;;1.38;1.27;;;20.70;64.00;;;;;;5034423;28;20029;-73
2022/04/17 12:12:34;;;;;;;2.13;1.45;;;20.50;63.70;;;;;;5033460;28;20037;-72
2022/04/17 12:15:03;;;;;;;1.30;1.20;;;20.40;62.20;;;;;;5037877;28;20378;-71
2022/04/17 12:17:31;;;;;;;2.83;1.50;;;20.20;63.90;;;;;;5040992;28;20032;-71
2022/04/17 12:19:56;;;;;;;1.98;1.40;;;20.20;62.00;;;;;;5036297;28;20363;-71
2022/04/17 12:22:22;;;;;;;1.80;1.00;;;20.40;61.50;;;;;;5036443;28;20044;-71
2022/04/17 12:24:48;;;;;;;1.77;1.30;;;20.60;62.00;;;;;;5039083;28;20096;-71
2022/04/17 12:27:23;;;;;;;2.97;1.13;;;20.40;58.60;;;;;;5034756;27;20553;-71
2022/04/17 12:29:53;;;;;;;2.55;1.20;;;20.30;59.70;;;;;;5039715;28;20029;-70
2022/04/17 12:32:23;;;;;;;4.13;1.20;;;20.60;63.60;;;;;;5035094;28;20500;-71
2022/04/17 12:35:00;;;;;;;2.95;1.27;;;20.70;63.30;;;;;;5038496;28;20021;-71
2022/04/17 12:37:30;;;;;;;1.90;1.13;;;20.50;64.10;;;;;;5038418;28;20029;-71
2022/04/17 12:40:18;;;;;;;2.50;1.10;;;20.40;62.30;;;;;;5037311;27;20354;-71
2022/04/17 12:42:44;;;;;;;1.13;0.80;;;20.40;62.70;;;;;;5036344;28;20110;-71
2022/04/17 12:45:21;;;;;;;2.25;1.15;;;20.50;60.50;;;;;;5044383;28;20053;-71
2022/04/17 12:48:04;;;;;;;1.95;1.27;;;20.60;59.10;;;;;;5038174;28;20358;-71
2022/04/17 12:50:30;;;;;;;1.83;1.00;;;20.70;61.90;;;;;;5036903;27;20021;-71
2022/04/17 12:52:58;;;;;;;2.45;1.20;;;20.70;61.90;;;;;;5038570;28;20036;-72
2022/04/17 12:55:31;;;;;;;3.25;0.90;;;20.90;68.20;;;;;;5047103;28;20354;-72
2022/04/17 12:57:58;;;;;;;2.13;0.93;;;21.10;62.80;;;;;;5035558;28;20039;-72
2022/04/17 13:00:26;;;;;;;5.18;1.05;;;21.10;61.00;;;;;;5043853;28;20025;-72
2022/04/17 13:03:14;;;;;;;2.25;0.82;;;20.90;62.30;;;;;;5034841;27;20033;-71
2022/04/17 13:05:40;;;;;;;1.67;1.10;;;21.00;59.40;;;;;;5042253;28;20020;-71
2022/04/17 13:08:08;;;;;;;1.33;0.95;;;20.90;63.30;;;;;;5044709;28;20084;-71
2022/04/17 13:10:34;;;;;;;2.03;1.13;;;20.80;56.80;;;;;;5036159;28;20034;-72
2022/04/17 13:13:00;;;;;;;4.18;0.98;;;20.70;56.90;;;;;;5040818;28;20029;-71
2022/04/17 13:15:33;;;;;;;1.48;0.90;;;20.50;58.40;;;;;;5045414;28;20041;-72